Home > Products > Valid Products > TAF

000
FTUS45 KBOI 290810 AAA
TAFMYL
TAF AMD
KMYL 290810Z 2908/3006 19015G23KT P6SM -SHRA OVC030
     FM291800 24011KT 5SM -SHRA BR OVC020
     FM292200 33010KT P6SM VCSH SCT020 SCT060
     FM300500 VRB03KT 3SM BR SCT002=



000
FTUS45 KBOI 290810 AAA
TAFMYL
TAF AMD
KMYL 290810Z 2908/3006 19015G23KT P6SM -SHRA OVC030
     FM291800 24011KT 5SM -SHRA BR OVC020
     FM292200 33010KT P6SM VCSH SCT020 SCT060
     FM300500 VRB03KT 3SM BR SCT002=



000
FTUS45 KBOI 290809 AAA
TAFBOI
TAF AMD
KBOI 290809Z 2908/3006 23009KT P6SM BKN100
     FM291700 13012KT P6SM -SHRA OVC040
     FM292200 31010KT P6SM VCSH SCT050 OVC060
     FM300400 31005KT P6SM FEW060=



000
FTUS45 KBOI 290809 AAA
TAFBOI
TAF AMD
KBOI 290809Z 2908/3006 23009KT P6SM BKN100
     FM291700 13012KT P6SM -SHRA OVC040
     FM292200 31010KT P6SM VCSH SCT050 OVC060
     FM300400 31005KT P6SM FEW060=



000
FTUS45 KBOI 290525
TAFJER
TAF
KJER 290525Z 2906/3006 23010KT P6SM OVC100
     FM291800 23018KT P6SM OVC060
     FM300100 24015KT P6SM -SHRA SCT020 OVC040=



000
FTUS45 KBOI 290525
TAFMYL
TAF
KMYL 290525Z 2906/3006 19015KT P6SM -SHRA SCT010 BKN040
     FM291800 24011KT 5SM -SHRA BR OVC020
     FM292200 33010KT P6SM VCSH SCT020 SCT060
     FM300500 VRB03KT 3SM BR SCT002=



000
FTUS45 KBOI 290525
TAFJER
TAF
KJER 290525Z 2906/3006 23010KT P6SM OVC100
     FM291800 23018KT P6SM OVC060
     FM300100 24015KT P6SM -SHRA SCT020 OVC040=



000
FTUS45 KBOI 290525
TAFBOI
TAF
KBOI 290525Z 2906/3006 VRB06KT P6SM VCSH OVC100
     FM291700 13012KT P6SM -SHRA OVC040
     FM292200 31010KT P6SM VCSH SCT050 OVC060
     FM300400 31005KT P6SM FEW060=



000
FTUS45 KBOI 290525
TAFTWF
TAF
KTWF 290525Z 2906/3006 23015G23KT P6SM OVC120
     FM290700 21011KT P6SM OVC070
     FM291800 23018G28KT P6SM OVC060
     FM300300 24018KT P6SM -SHRA SCT020 OVC040=



000
FTUS45 KBOI 290525
TAFBOI
TAF
KBOI 290525Z 2906/3006 VRB06KT P6SM VCSH OVC100
     FM291700 13012KT P6SM -SHRA OVC040
     FM292200 31010KT P6SM VCSH SCT050 OVC060
     FM300400 31005KT P6SM FEW060=



000
FTUS45 KBOI 290525
TAFBNO
TAF
KBNO 290525Z 2906/3006 VRB06KT P6SM OVC050
     FM291500 28010KT 5SM -SHRA BR OVC010
     FM292000 27010KT P6SM SCT010 BKN030
     FM300000 29010KT P6SM SCT030=



000
FTUS45 KBOI 290525
TAFBKE
TAF
KBKE 290525Z 2906/3006 21012KT P6SM VCSH OVC050
     FM291500 33011KT P6SM -SHRA OVC015
     FM291800 31010KT P6SM OVC040=



000
FTUS45 KBOI 290525
TAFTWF
TAF
KTWF 290525Z 2906/3006 23015G23KT P6SM OVC120
     FM290700 21011KT P6SM OVC070
     FM291800 23018G28KT P6SM OVC060
     FM300300 24018KT P6SM -SHRA SCT020 OVC040=



000
FTUS45 KBOI 290525
TAFBKE
TAF
KBKE 290525Z 2906/3006 21012KT P6SM VCSH OVC050
     FM291500 33011KT P6SM -SHRA OVC015
     FM291800 31010KT P6SM OVC040=



000
FTUS45 KBOI 290259 AAA
TAFMYL
TAF AMD
KMYL 290259Z 2903/2924 13010G20KT P6SM -SHRA SCT010 BKN040
     FM290400 VRB06KT P6SM -SHRA SCT010 BKN040
     FM291800 24011KT 5SM -SHRA BR OVC020=



000
FTUS45 KBOI 290259 AAA
TAFMYL
TAF AMD
KMYL 290259Z 2903/2924 13010G20KT P6SM -SHRA SCT010 BKN040
     FM290400 VRB06KT P6SM -SHRA SCT010 BKN040
     FM291800 24011KT 5SM -SHRA BR OVC020=



000
FTUS45 KBOI 290259 AAA
TAFMYL
TAF AMD
KMYL 290259Z 2903/2924 13010G20KT P6SM -SHRA SCT010 BKN040
     FM290400 VRB06KT P6SM -SHRA SCT010 BKN040
     FM291800 24011KT 5SM -SHRA BR OVC020=



000
FTUS45 KBOI 290259 AAA
TAFMYL
TAF AMD
KMYL 290259Z 2903/2924 13010G20KT P6SM -SHRA SCT010 BKN040
     FM290400 VRB06KT P6SM -SHRA SCT010 BKN040
     FM291800 24011KT 5SM -SHRA BR OVC020=



000
FTUS45 KBOI 282325
TAFBOI
TAF
KBOI 282325Z 2900/2924 VRB06KT P6SM VCSH OVC100
     FM291700 13012KT P6SM -SHRA OVC040=



000
FTUS45 KBOI 282325
TAFJER
TAF
KJER 282325Z 2900/2924 23010KT P6SM OVC100
     FM291800 23018KT P6SM OVC060=



000
FTUS45 KBOI 282325
TAFTWF
TAF
KTWF 282325Z 2900/2924 23014KT P6SM OVC120
     FM290300 21011KT P6SM OVC070
     FM291800 23015G25KT P6SM OVC060=



000
FTUS45 KBOI 282325
TAFBKE
TAF
KBKE 282325Z 2900/2924 16011KT P6SM VCSH OVC050
     FM291500 33011KT P6SM -SHSN OVC015=



000
FTUS45 KBOI 282325
TAFMYL
TAF
KMYL 282325Z 2900/2924 13010G20KT P6SM -SHRA SCT010 BKN040
     FM290300 17011KT 2SM -SHSN BR OVC020=



000
FTUS45 KBOI 282325
TAFBOI
TAF
KBOI 282325Z 2900/2924 VRB06KT P6SM VCSH OVC100
     FM291700 13012KT P6SM -SHRA OVC040=



000
FTUS45 KBOI 282325
TAFBNO
TAF
KBNO 282325Z 2900/2924 22015G25KT P6SM OVC050
     FM290200 20010KT P6SM OVC050
     FM291500 28010KT 2SM -SHSN OVC010
     FM292100 27010KT P6SM SCT010 BKN030=



000
FTUS45 KBOI 282325
TAFMYL
TAF
KMYL 282325Z 2900/2924 13010G20KT P6SM -SHRA SCT010 BKN040
     FM290300 17011KT 2SM -SHSN BR OVC020=



000
FTUS45 KBOI 282325
TAFJER
TAF
KJER 282325Z 2900/2924 23010KT P6SM OVC100
     FM291800 23018KT P6SM OVC060=



000
FTUS45 KBOI 282325
TAFBKE
TAF
KBKE 282325Z 2900/2924 16011KT P6SM VCSH OVC050
     FM291500 33011KT P6SM -SHSN OVC015=



000
FTUS45 KBOI 282325
TAFBNO
TAF
KBNO 282325Z 2900/2924 22015G25KT P6SM OVC050
     FM290200 20010KT P6SM OVC050
     FM291500 28010KT 2SM -SHSN OVC010
     FM292100 27010KT P6SM SCT010 BKN030=



000
FTUS45 KBOI 282325
TAFTWF
TAF
KTWF 282325Z 2900/2924 23014KT P6SM OVC120
     FM290300 21011KT P6SM OVC070
     FM291800 23015G25KT P6SM OVC060=



000
FTUS45 KBOI 282119 AAA
TAFMYL
TAF AMD
KMYL 282119Z 2821/2918 16011KT P6SM -SHRA OVC040
     FM290300 17011KT 2SM -SHSN BR OVC020=



000
FTUS45 KBOI 282119 AAB
TAFBKE
TAF AMD
KBKE 282119Z 2821/2918 16015G25KT P6SM VCSH OVC050
     FM290100 16011KT P6SM VCSH OVC050
     FM291500 33011KT P6SM -SHSN OVC015=



000
FTUS45 KBOI 281745 AAA
TAFBKE
TAF AMD
KBKE 281745Z 2818/2918 14014KT P6SM VCSH OVC050
     FM291500 33011KT P6SM -SHSN OVC015=



000
FTUS45 KBOI 281745 AAA
TAFBKE
TAF AMD
KBKE 281745Z 2818/2918 14014KT P6SM VCSH OVC050
     FM291500 33011KT P6SM -SHSN OVC015=



000
FTUS45 KBOI 281740
TAFMYL
TAF
KMYL 281740Z 2818/2918 16011KT 5SM -SHRA BR OVC030
     FM290300 17011KT 2SM -SHSN BR OVC020=



000
FTUS45 KBOI 281740
TAFTWF
TAF
KTWF 281740Z 2818/2918 23011KT P6SM OVC120
     FM290300 21011KT P6SM OVC070=



000
FTUS45 KBOI 281740
TAFBNO
TAF
KBNO 281740Z 2818/2918 19008KT P6SM -SHRA OVC070
     FM282100 22015G25KT P6SM OVC100
     FM290100 20010KT P6SM OVC100
     FM291500 28010KT 2SM -SHSN OVC010=



000
FTUS45 KBOI 281740
TAFJER
TAF
KJER 281740Z 2818/2918 23010KT P6SM OVC100=



000
FTUS45 KBOI 281740
TAFBOI
TAF
KBOI 281740Z 2818/2918 13011KT P6SM OVC150
     FM291500 13011KT P6SM VCSH OVC050
     FM291700 13012KT P6SM -SHRA OVC040=



000
FTUS45 KBOI 281740
TAFBKE
TAF
KBKE 281740Z 2818/2918 11014KT P6SM VCSH OVC050
     FM291500 33011KT P6SM -SHSN OVC015=



000
FTUS45 KBOI 281740
TAFBKE
TAF
KBKE 281740Z 2818/2918 11014KT P6SM VCSH OVC050
     FM291500 33011KT P6SM -SHSN OVC015=



000
FTUS45 KBOI 281740
TAFBNO
TAF
KBNO 281740Z 2818/2918 19008KT P6SM -SHRA OVC070
     FM282100 22015G25KT P6SM OVC100
     FM290100 20010KT P6SM OVC100
     FM291500 28010KT 2SM -SHSN OVC010=



000
FTUS45 KBOI 281740
TAFTWF
TAF
KTWF 281740Z 2818/2918 23011KT P6SM OVC120
     FM290300 21011KT P6SM OVC070=



000
FTUS45 KBOI 281740
TAFMYL
TAF
KMYL 281740Z 2818/2918 16011KT 5SM -SHRA BR OVC030
     FM290300 17011KT 2SM -SHSN BR OVC020=



000
FTUS45 KBOI 281740
TAFJER
TAF
KJER 281740Z 2818/2918 23010KT P6SM OVC100=



000
FTUS45 KBOI 281740
TAFBOI
TAF
KBOI 281740Z 2818/2918 13011KT P6SM OVC150
     FM291500 13011KT P6SM VCSH OVC050
     FM291700 13012KT P6SM -SHRA OVC040=



000
FTUS45 KBOI 281401 AAA
TAFMYL
TAF AMD
KMYL 281401Z 2814/2912 VRB06KT 6SM -SHRA BR SCT035 BKN050 OVC070
     FM281700 16012KT 5SM -SHRA BR SCT015 OVC025=



000
FTUS45 KBOI 281401 AAA
TAFMYL
TAF AMD
KMYL 281401Z 2814/2912 VRB06KT 6SM -SHRA BR SCT035 BKN050 OVC070
     FM281700 16012KT 5SM -SHRA BR SCT015 OVC025=



000
FTUS45 KBOI 281138
TAFBNO
TAF
KBNO 281138Z 2812/2912 23005KT P6SM VCSH SCT060 OVC100
     FM281600 19008KT P6SM -SHRA SCT020 OVC040=



000
FTUS45 KBOI 281138
TAFMYL
TAF
KMYL 281138Z 2812/2912 VRB06KT 6SM BR VCFG OVC070
      TEMPO 2812/2816 1SM BR SCT002 BKN020
     FM281700 16012KT 5SM -SHRA BR SCT015 OVC025=



000
FTUS45 KBOI 281138
TAFTWF
TAF
KTWF 281138Z 2812/2912 19010KT P6SM OVC120
     FM282100 26010KT P6SM BKN120
     FM290400 21012KT P6SM SCT080 OVC100=



000
FTUS45 KBOI 281138
TAFBKE
TAF
KBKE 281138Z 2812/2912 11011KT P6SM VCSH SCT040 OVC070
     FM281600 11010KT P6SM -SHRA OVC040=



000
FTUS45 KBOI 281138
TAFBOI
TAF
KBOI 281138Z 2812/2912 13008KT P6SM SCT080 BKN100
     FM290200 13010KT P6SM VCSH SCT030 OVC050 PROB30 2902/2906 -SHRA
      OVC035=



000
FTUS45 KBOI 281138
TAFJER
TAF
KJER 281138Z 2812/2912 05010KT P6SM OVC100
     FM281500 23010KT P6SM BKN120=



000
FTUS45 KBOI 281138
TAFTWF
TAF
KTWF 281138Z 2812/2912 19010KT P6SM OVC120
     FM282100 26010KT P6SM BKN120
     FM290400 21012KT P6SM SCT080 OVC100=



000
FTUS45 KBOI 281138
TAFBKE
TAF
KBKE 281138Z 2812/2912 11011KT P6SM VCSH SCT040 OVC070
     FM281600 11010KT P6SM -SHRA OVC040=



000
FTUS45 KBOI 281138
TAFMYL
TAF
KMYL 281138Z 2812/2912 VRB06KT 6SM BR VCFG OVC070
      TEMPO 2812/2816 1SM BR SCT002 BKN020
     FM281700 16012KT 5SM -SHRA BR SCT015 OVC025=



000
FTUS45 KBOI 281138
TAFBNO
TAF
KBNO 281138Z 2812/2912 23005KT P6SM VCSH SCT060 OVC100
     FM281600 19008KT P6SM -SHRA SCT020 OVC040=



000
FTUS45 KBOI 281138
TAFBOI
TAF
KBOI 281138Z 2812/2912 13008KT P6SM SCT080 BKN100
     FM290200 13010KT P6SM VCSH SCT030 OVC050 PROB30 2902/2906 -SHRA
      OVC035=



000
FTUS45 KBOI 281138
TAFJER
TAF
KJER 281138Z 2812/2912 05010KT P6SM OVC100
     FM281500 23010KT P6SM BKN120=



000
FTUS45 KBOI 281025 AAA
TAFMYL
TAF AMD
KMYL 281025Z 2810/2906 VRB06KT 5SM -SHRA BR OVC035
      TEMPO 2810/2812 OVC020
     FM281200 VRB06KT 1SM BR SCT002 BKN020
     FM281700 16012KT 5SM -SHRA BR SCT005 BKN015=



000
FTUS45 KBOI 281025 AAA
TAFMYL
TAF AMD
KMYL 281025Z 2810/2906 VRB06KT 5SM -SHRA BR OVC035
      TEMPO 2810/2812 OVC020
     FM281200 VRB06KT 1SM BR SCT002 BKN020
     FM281700 16012KT 5SM -SHRA BR SCT005 BKN015=



000
FTUS45 KBOI 280953 AAC
TAFBOI
TAF AMD
KBOI 280953Z 2810/2906 13008KT P6SM SCT080 BKN100
     FM290200 13010KT P6SM VCSH SCT030 OVC050=



000
FTUS45 KBOI 280953 AAC
TAFBOI
TAF AMD
KBOI 280953Z 2810/2906 13008KT P6SM SCT080 BKN100
     FM290200 13010KT P6SM VCSH SCT030 OVC050=



000
FTUS45 KBOI 280812 AAB
TAFBOI
TAF AMD
KBOI 280812Z 2808/2906 13008KT P6SM VCSH SCT080 OVC100
      TEMPO 2808/2811 00000KT 1/2SM FG BKN002
     FM290200 13010KT P6SM VCSH SCT030 OVC050=



000
FTUS45 KBOI 280812 AAB
TAFBOI
TAF AMD
KBOI 280812Z 2808/2906 13008KT P6SM VCSH SCT080 OVC100
      TEMPO 2808/2811 00000KT 1/2SM FG BKN002
     FM290200 13010KT P6SM VCSH SCT030 OVC050=



000
FTUS45 KBOI 280751 AAA
TAFBOI
TAF AMD
KBOI 280751Z 2808/2906 13008KT P6SM VCSH SCT080 OVC100
      TEMPO 2808/2811 00000KT 3SM BR SCT004
     FM290200 13010KT P6SM VCSH SCT030 OVC050=



000
FTUS45 KBOI 280751 AAA
TAFBOI
TAF AMD
KBOI 280751Z 2808/2906 13008KT P6SM VCSH SCT080 OVC100
      TEMPO 2808/2811 00000KT 3SM BR SCT004
     FM290200 13010KT P6SM VCSH SCT030 OVC050=



000
FTUS45 KBOI 280520
TAFBKE
TAF
KBKE 280520Z 2806/2906 11011KT P6SM -SHRA SCT030 BKN050=



000
FTUS45 KBOI 280520
TAFMYL
TAF
KMYL 280520Z 2806/2906 VRB06KT 5SM -SHRA BR BKN020
      TEMPO 2806/2810 OVC035
     FM281000 VRB06KT 1SM BR SCT002 BKN020
     FM281700 16012KT 5SM -SHRA BR SCT005 BKN015=



000
FTUS45 KBOI 280520
TAFBOI
TAF
KBOI 280520Z 2806/2906 13008KT P6SM VCSH SCT080 OVC150
     FM290200 13010KT P6SM VCSH SCT030 OVC050=



000
FTUS45 KBOI 280520
TAFBNO
TAF
KBNO 280520Z 2806/2906 23005KT P6SM VCSH SCT060 OVC100
     FM281600 19008KT P6SM -SHRA SCT020 OVC040=



000
FTUS45 KBOI 280520
TAFTWF
TAF
KTWF 280520Z 2806/2906 19010KT P6SM OVC120
     FM290400 21012KT P6SM SCT080 OVC100=



000
FTUS45 KBOI 280520
TAFJER
TAF
KJER 280520Z 2806/2906 05010KT P6SM OVC100
     FM281500 23010KT P6SM BKN120=



000
FTUS45 KBOI 280520
TAFMYL
TAF
KMYL 280520Z 2806/2906 VRB06KT 5SM -SHRA BR BKN020
      TEMPO 2806/2810 OVC035
     FM281000 VRB06KT 1SM BR SCT002 BKN020
     FM281700 16012KT 5SM -SHRA BR SCT005 BKN015=



000
FTUS45 KBOI 280520
TAFBOI
TAF
KBOI 280520Z 2806/2906 13008KT P6SM VCSH SCT080 OVC150
     FM290200 13010KT P6SM VCSH SCT030 OVC050=



000
FTUS45 KBOI 280520
TAFBNO
TAF
KBNO 280520Z 2806/2906 23005KT P6SM VCSH SCT060 OVC100
     FM281600 19008KT P6SM -SHRA SCT020 OVC040=



000
FTUS45 KBOI 280520
TAFTWF
TAF
KTWF 280520Z 2806/2906 19010KT P6SM OVC120
     FM290400 21012KT P6SM SCT080 OVC100=



000
FTUS45 KBOI 280520
TAFJER
TAF
KJER 280520Z 2806/2906 05010KT P6SM OVC100
     FM281500 23010KT P6SM BKN120=



000
FTUS45 KBOI 280520
TAFBKE
TAF
KBKE 280520Z 2806/2906 11011KT P6SM -SHRA SCT030 BKN050=



000
FTUS45 KBOI 280227 AAA
TAFMYL
TAF AMD
KMYL 280227Z 2802/2824 14005KT 6SM BR SCT020 OVC050
      TEMPO 2802/2806 5SM -RA BKN015=



000
FTUS45 KBOI 280227 AAA
TAFMYL
TAF AMD
KMYL 280227Z 2802/2824 14005KT 6SM BR SCT020 OVC050
      TEMPO 2802/2806 5SM -RA BKN015=



000
FTUS45 KBOI 272320
TAFJER
TAF
KJER 272320Z 2800/2824 VRB06KT P6SM OVC100
     FM280200 05010KT P6SM OVC100
     FM281500 12010KT P6SM BKN120=



000
FTUS45 KBOI 272320
TAFMYL
TAF
KMYL 272320Z 2800/2824 14005KT 6SM -RA BR SCT010 OVC015=



000
FTUS45 KBOI 272320
TAFBKE
TAF
KBKE 272320Z 2800/2824 15015KT P6SM VCSH BKN080
     FM280000 11010KT P6SM -SHRA BKN050 OVC080=



000
FTUS45 KBOI 272320
TAFMYL
TAF
KMYL 272320Z 2800/2824 14005KT 6SM -RA BR SCT010 OVC015=



000
FTUS45 KBOI 272320
TAFTWF
TAF
KTWF 272320Z 2800/2824 24008KT P6SM OVC120
     FM280200 19010KT P6SM OVC120=



000
FTUS45 KBOI 272320
TAFBNO
TAF
KBNO 272320Z 2800/2824 23005KT P6SM VCSH SCT060 OVC100=



000
FTUS45 KBOI 272320
TAFJER
TAF
KJER 272320Z 2800/2824 VRB06KT P6SM OVC100
     FM280200 05010KT P6SM OVC100
     FM281500 12010KT P6SM BKN120=



000
FTUS45 KBOI 272320
TAFBOI
TAF
KBOI 272320Z 2800/2824 13008KT P6SM VCSH SCT080 OVC150=



000
FTUS45 KBOI 272320
TAFBNO
TAF
KBNO 272320Z 2800/2824 23005KT P6SM VCSH SCT060 OVC100=



000
FTUS45 KBOI 272320
TAFBOI
TAF
KBOI 272320Z 2800/2824 13008KT P6SM VCSH SCT080 OVC150=



000
FTUS45 KBOI 272320
TAFBKE
TAF
KBKE 272320Z 2800/2824 15015KT P6SM VCSH BKN080
     FM280000 11010KT P6SM -SHRA BKN050 OVC080=



000
FTUS45 KBOI 272320
TAFTWF
TAF
KTWF 272320Z 2800/2824 24008KT P6SM OVC120
     FM280200 19010KT P6SM OVC120=



000
FTUS45 KBOI 272123 AAB
TAFMYL
TAF AMD
KMYL 272123Z 2721/2818 17015G25KT P6SM VCSH SCT050 BKN080
     FM280000 13005KT 6SM -RA BR OVC020=



000
FTUS45 KBOI 272123 AAB
TAFMYL
TAF AMD
KMYL 272123Z 2721/2818 17015G25KT P6SM VCSH SCT050 BKN080
     FM280000 13005KT 6SM -RA BR OVC020=



000
FTUS45 KBOI 272121 AAA
TAFBKE
TAF AMD
KBKE 272121Z 2721/2818 15015KT P6SM VCSH BKN080
     FM280000 11010KT P6SM -SHRA BKN050 OVC080=



000
FTUS45 KBOI 272121 AAA
TAFBKE
TAF AMD
KBKE 272121Z 2721/2818 15015KT P6SM VCSH BKN080
     FM280000 11010KT P6SM -SHRA BKN050 OVC080=



000
FTUS45 KBOI 272002 AAB
TAFBOI
TAF AMD
KBOI 272002Z 2720/2818 31007KT P6SM -SHRA BKN060 OVC100
     FM280000 14005KT P6SM VCSH OVC080=



000
FTUS45 KBOI 272002 AAB
TAFBOI
TAF AMD
KBOI 272002Z 2720/2818 31007KT P6SM -SHRA BKN060 OVC100
     FM280000 14005KT P6SM VCSH OVC080=



000
FTUS45 KBOI 271914 AAA
TAFMYL
TAF AMD
KMYL 271914Z 2719/2818 17012KT P6SM VCSH SCT050 BKN080
     FM280000 13005KT 6SM -RA BR OVC020=



000
FTUS45 KBOI 271914 AAA
TAFMYL
TAF AMD
KMYL 271914Z 2719/2818 17012KT P6SM VCSH SCT050 BKN080
     FM280000 13005KT 6SM -RA BR OVC020=



000
FTUS45 KBOI 271732
TAFTWF
TAF
KTWF 271732Z 2718/2818 19007KT P6SM BKN120
     FM272100 24008KT P6SM OVC120
     FM280200 19010KT P6SM OVC120=



000
FTUS45 KBOI 271732
TAFMYL
TAF
KMYL 271732Z 2718/2818 34006KT P6SM VCSH SCT050 BKN100
     FM280000 13005KT 6SM -RA BR OVC020=



000
FTUS45 KBOI 271732
TAFBOI
TAF
KBOI 271732Z 2718/2818 15012KT P6SM OVC100
     FM280000 14005KT P6SM VCSH OVC080=



000
FTUS45 KBOI 271732
TAFJER
TAF
KJER 271732Z 2718/2818 VRB06KT P6SM SCT100 BKN150
     FM272000 29007KT P6SM OVC100
     FM280200 05010KT P6SM OVC100
     FM281500 12010KT P6SM BKN120=



000
FTUS45 KBOI 271732
TAFBKE
TAF
KBKE 271732Z 2718/2818 VRB04KT P6SM VCSH BKN080
     FM280000 11010KT P6SM -SHRA BKN050 OVC080=



000
FTUS45 KBOI 271732
TAFBNO
TAF
KBNO 271732Z 2718/2818 VRB03KT P6SM OVC120
     FM272100 23005KT P6SM VCSH SCT060 OVC100=



000
FTUS45 KBOI 271732
TAFTWF
TAF
KTWF 271732Z 2718/2818 19007KT P6SM BKN120
     FM272100 24008KT P6SM OVC120
     FM280200 19010KT P6SM OVC120=



000
FTUS45 KBOI 271732
TAFBOI
TAF
KBOI 271732Z 2718/2818 15012KT P6SM OVC100
     FM280000 14005KT P6SM VCSH OVC080=



000
FTUS45 KBOI 271732
TAFMYL
TAF
KMYL 271732Z 2718/2818 34006KT P6SM VCSH SCT050 BKN100
     FM280000 13005KT 6SM -RA BR OVC020=



000
FTUS45 KBOI 271732
TAFJER
TAF
KJER 271732Z 2718/2818 VRB06KT P6SM SCT100 BKN150
     FM272000 29007KT P6SM OVC100
     FM280200 05010KT P6SM OVC100
     FM281500 12010KT P6SM BKN120=



000
FTUS45 KBOI 271732
TAFBNO
TAF
KBNO 271732Z 2718/2818 VRB03KT P6SM OVC120
     FM272100 23005KT P6SM VCSH SCT060 OVC100=



000
FTUS45 KBOI 271732
TAFBKE
TAF
KBKE 271732Z 2718/2818 VRB04KT P6SM VCSH BKN080
     FM280000 11010KT P6SM -SHRA BKN050 OVC080=



000
FTUS45 KBOI 271404 AAA
TAFBKE
TAF AMD
KBKE 271404Z 2714/2812 11011KT P6SM OVC100
     FM271800 11011KT P6SM VCSH OVC050=



000
FTUS45 KBOI 271404 AAA
TAFBKE
TAF AMD
KBKE 271404Z 2714/2812 11011KT P6SM OVC100
     FM271800 11011KT P6SM VCSH OVC050=



000
FTUS45 KBOI 271138
TAFBOI
TAF
KBOI 271138Z 2712/2812 13007KT P6SM OVC150
     FM280000 13009KT P6SM VCSH OVC100=



000
FTUS45 KBOI 271138
TAFBNO
TAF
KBNO 271138Z 2712/2812 VRB05KT P6SM OVC100
     FM272100 VRB05KT P6SM VCSH OVC050=



000
FTUS45 KBOI 271138
TAFBKE
TAF
KBKE 271138Z 2712/2812 11011G18KT P6SM OVC100
     FM271800 11011G16KT P6SM VCSH OVC050=



000
FTUS45 KBOI 271138
TAFJER
TAF
KJER 271138Z 2712/2812 05007KT P6SM OVC150
     FM271700 33007KT P6SM OVC100
     FM280000 05011KT P6SM OVC150=



000
FTUS45 KBOI 271138
TAFTWF
TAF
KTWF 271138Z 2712/2812 20011KT P6SM OVC150
     FM272000 VRB05KT P6SM OVC100
     FM280200 19010KT P6SM OVC200=



000
FTUS45 KBOI 271138
TAFMYL
TAF
KMYL 271138Z 2712/2812 VRB05KT P6SM -SHRA OVC050
     FM271800 17010KT P6SM VCSH OVC040
     FM280000 15008KT 6SM -RA BR OVC020=



000
FTUS45 KBOI 271138
TAFTWF
TAF
KTWF 271138Z 2712/2812 20011KT P6SM OVC150
     FM272000 VRB05KT P6SM OVC100
     FM280200 19010KT P6SM OVC200=



000
FTUS45 KBOI 271138
TAFMYL
TAF
KMYL 271138Z 2712/2812 VRB05KT P6SM -SHRA OVC050
     FM271800 17010KT P6SM VCSH OVC040
     FM280000 15008KT 6SM -RA BR OVC020=



000
FTUS45 KBOI 271138
TAFJER
TAF
KJER 271138Z 2712/2812 05007KT P6SM OVC150
     FM271700 33007KT P6SM OVC100
     FM280000 05011KT P6SM OVC150=



000
FTUS45 KBOI 271138
TAFBKE
TAF
KBKE 271138Z 2712/2812 11011G18KT P6SM OVC100
     FM271800 11011G16KT P6SM VCSH OVC050=



000
FTUS45 KBOI 271138
TAFBOI
TAF
KBOI 271138Z 2712/2812 13007KT P6SM OVC150
     FM280000 13009KT P6SM VCSH OVC100=



000
FTUS45 KBOI 271138
TAFBNO
TAF
KBNO 271138Z 2712/2812 VRB05KT P6SM OVC100
     FM272100 VRB05KT P6SM VCSH OVC050=



000
FTUS45 KBOI 270520
TAFBNO
TAF
KBNO 270520Z 2706/2806 VRB05KT P6SM OVC200
     FM272100 VRB05KT P6SM -RA OVC050=



000
FTUS45 KBOI 270520
TAFJER
TAF
KJER 270520Z 2706/2806 09007KT P6SM OVC200
     FM271700 04010KT P6SM FEW100 OVC200=



000
FTUS45 KBOI 270520
TAFBKE
TAF
KBKE 270520Z 2706/2806 11005KT P6SM OVC200
     FM271400 12005KT P6SM -RA OVC050
     FM271800 11009KT P6SM VCSH OVC050
     FM280100 12009KT P6SM -RA OVC045=



000
FTUS45 KBOI 270520
TAFBOI
TAF
KBOI 270520Z 2706/2806 13007KT P6SM OVC200
     FM280000 13009KT P6SM SCT050 OVC100 PROB30 2800/2806 -SHRA
      BKN050=



000
FTUS45 KBOI 270520
TAFMYL
TAF
KMYL 270520Z 2706/2806 00000KT 6SM BR OVC200
     FM271200 VRB03KT 2SM BR VCSH SCT020 OVC045
     FM271500 VRB03KT 2SM -SN OVC020
     FM271900 VRB03KT P6SM VCSH SCT020 OVC045
     FM280200 VRB03KT 5SM -RA BR OVC025=



000
FTUS45 KBOI 270520
TAFBOI
TAF
KBOI 270520Z 2706/2806 13007KT P6SM OVC200
     FM280000 13009KT P6SM SCT050 OVC100 PROB30 2800/2806 -SHRA
      BKN050=



000
FTUS45 KBOI 270520
TAFTWF
TAF
KTWF 270520Z 2706/2806 19011KT P6SM OVC200
     FM272000 26009KT P6SM FEW100 OVC200
     FM280200 19010KT P6SM SCT100 OVC200=



000
FTUS45 KBOI 270520
TAFMYL
TAF
KMYL 270520Z 2706/2806 00000KT 6SM BR OVC200
     FM271200 VRB03KT 2SM BR VCSH SCT020 OVC045
     FM271500 VRB03KT 2SM -SN OVC020
     FM271900 VRB03KT P6SM VCSH SCT020 OVC045
     FM280200 VRB03KT 5SM -RA BR OVC025=



000
FTUS45 KBOI 270520
TAFBNO
TAF
KBNO 270520Z 2706/2806 VRB05KT P6SM OVC200
     FM272100 VRB05KT P6SM -RA OVC050=



000
FTUS45 KBOI 270204 AAA
TAFMYL
TAF AMD
KMYL 270204Z 2702/2724 00000KT 3SM BR BKN200
     FM270600 00000KT 2SM BR SCT100 OVC200
     FM271200 VRB03KT 2SM BR VCSH SCT020 OVC045
     FM271500 VRB03KT 2SM -SN OVC020
     FM272000 VRB03KT P6SM VCSH SCT020 OVC045=



000
FTUS45 KBOI 270204 AAA
TAFMYL
TAF AMD
KMYL 270204Z 2702/2724 00000KT 3SM BR BKN200
     FM270600 00000KT 2SM BR SCT100 OVC200
     FM271200 VRB03KT 2SM BR VCSH SCT020 OVC045
     FM271500 VRB03KT 2SM -SN OVC020
     FM272000 VRB03KT P6SM VCSH SCT020 OVC045=



000
FTUS45 KBOI 262320
TAFMYL
TAF
KMYL 262320Z 2700/2724 VRB03KT P6SM BKN200
     FM271200 VRB03KT P6SM VCSH SCT020 OVC045
     FM271500 VRB03KT 3SM -SN OVC020
     FM272000 VRB03KT P6SM VCSH SCT020 OVC045=



000
FTUS45 KBOI 262320
TAFBOI
TAF
KBOI 262320Z 2700/2724 13006KT P6SM BKN200=



000
FTUS45 KBOI 262320
TAFBNO
TAF
KBNO 262320Z 2700/2724 VRB05KT P6SM BKN200=



000
FTUS45 KBOI 262320
TAFBNO
TAF
KBNO 262320Z 2700/2724 VRB05KT P6SM BKN200=



000
FTUS45 KBOI 262320
TAFJER
TAF
KJER 262320Z 2700/2724 26006KT P6SM BKN200
     FM270300 05010KT P6SM BKN200
     FM271900 32008KT P6SM BKN200=



000
FTUS45 KBOI 262320
TAFMYL
TAF
KMYL 262320Z 2700/2724 VRB03KT P6SM BKN200
     FM271200 VRB03KT P6SM VCSH SCT020 OVC045
     FM271500 VRB03KT 3SM -SN OVC020
     FM272000 VRB03KT P6SM VCSH SCT020 OVC045=



000
FTUS45 KBOI 262320
TAFTWF
TAF
KTWF 262320Z 2700/2724 VRB05KT P6SM BKN200
     FM270300 19010KT P6SM BKN200
     FM272000 26009KT P6SM BKN200=



000
FTUS45 KBOI 262320
TAFTWF
TAF
KTWF 262320Z 2700/2724 VRB05KT P6SM BKN200
     FM270300 19010KT P6SM BKN200
     FM272000 26009KT P6SM BKN200=



000
FTUS45 KBOI 262320
TAFJER
TAF
KJER 262320Z 2700/2724 26006KT P6SM BKN200
     FM270300 05010KT P6SM BKN200
     FM271900 32008KT P6SM BKN200=



000
FTUS45 KBOI 262320
TAFBKE
TAF
KBKE 262320Z 2700/2724 11005KT P6SM BKN200
     FM271200 12005KT P6SM -RA OVC050
     FM271800 11009KT P6SM OVC050=



000
FTUS45 KBOI 262320
TAFBKE
TAF
KBKE 262320Z 2700/2724 11005KT P6SM BKN200
     FM271200 12005KT P6SM -RA OVC050
     FM271800 11009KT P6SM OVC050=



000
FTUS45 KBOI 262320
TAFBOI
TAF
KBOI 262320Z 2700/2724 13006KT P6SM BKN200=



000
FTUS45 KBOI 261743 CCA
TAFMYL
TAF COR
KMYL 261743Z 2618/2718 15005KT P6SM BKN200
      TEMPO 2618/2619 1SM BR BKN001=



000
FTUS45 KBOI 261743 CCA
TAFMYL
TAF COR
KMYL 261743Z 2618/2718 15005KT P6SM BKN200
      TEMPO 2618/2619 1SM BR BKN001=



000
FTUS45 KBOI 261720
TAFTWF
TAF
KTWF 261720Z 2618/2718 21011KT P6SM SCT200
     FM270300 17010KT P6SM SCT200=



000
FTUS45 KBOI 261720
TAFMYL
TAF
KMYL 261720Z 2618/2718 15005KT P6SM BKN200=



000
FTUS45 KBOI 261720
TAFBKE
TAF
KBKE 261720Z 2618/2718 10005KT P6SM BKN200
     FM271000 VRB05KT P6SM FEW050 OVC080=



000
FTUS45 KBOI 261720
TAFBNO
TAF
KBNO 261720Z 2618/2718 VRB05KT P6SM BKN200=



000
FTUS45 KBOI 261720
TAFJER
TAF
KJER 261720Z 2618/2718 22011KT P6SM SCT200
     FM270100 05010KT P6SM SCT200=



000
FTUS45 KBOI 261720
TAFBOI
TAF
KBOI 261720Z 2618/2718 13007KT P6SM BKN200=



000
FTUS45 KBOI 261720
TAFTWF
TAF
KTWF 261720Z 2618/2718 21011KT P6SM SCT200
     FM270300 17010KT P6SM SCT200=



000
FTUS45 KBOI 261720
TAFJER
TAF
KJER 261720Z 2618/2718 22011KT P6SM SCT200
     FM270100 05010KT P6SM SCT200=



000
FTUS45 KBOI 261720
TAFBKE
TAF
KBKE 261720Z 2618/2718 10005KT P6SM BKN200
     FM271000 VRB05KT P6SM FEW050 OVC080=



000
FTUS45 KBOI 261720
TAFBNO
TAF
KBNO 261720Z 2618/2718 VRB05KT P6SM BKN200=



000
FTUS45 KBOI 261720
TAFBOI
TAF
KBOI 261720Z 2618/2718 13007KT P6SM BKN200=



000
FTUS45 KBOI 261720
TAFMYL
TAF
KMYL 261720Z 2618/2718 15005KT P6SM BKN200=



000
FTUS45 KBOI 261458 AAB
TAFMYL
TAF AMD
KMYL 261458Z 2615/2712 15005KT P6SM BKN050 BKN200=



000
FTUS45 KBOI 261458 AAB
TAFMYL
TAF AMD
KMYL 261458Z 2615/2712 15005KT P6SM BKN050 BKN200=



000
FTUS45 KBOI 261331 AAA
TAFMYL
TAF AMD
KMYL 261331Z 2614/2712 15005KT P6SM BKN030 BKN200
      TEMPO 2614/2616 00000KT 1SM BR
     FM261900 15005KT P6SM BKN050 BKN200=



000
FTUS45 KBOI 261331 AAA
TAFMYL
TAF AMD
KMYL 261331Z 2614/2712 15005KT P6SM BKN030 BKN200
      TEMPO 2614/2616 00000KT 1SM BR
     FM261900 15005KT P6SM BKN050 BKN200=



000
FTUS45 KBOI 261139
TAFBOI
TAF
KBOI 261139Z 2612/2712 VRB03KT P6SM BKN200
     FM261800 13007KT P6SM BKN200=



000
FTUS45 KBOI 261139
TAFMYL
TAF
KMYL 261139Z 2612/2712 15005KT P6SM BKN030 BKN200
     FM261900 15005KT P6SM BKN050 BKN200=



000
FTUS45 KBOI 261139
TAFBKE
TAF
KBKE 261139Z 2612/2712 10005KT P6SM BKN200=



000
FTUS45 KBOI 261139
TAFJER
TAF
KJER 261139Z 2612/2712 23011KT P6SM SCT050 BKN100
     FM270100 05010KT P6SM SCT200=



000
FTUS45 KBOI 261139
TAFBNO
TAF
KBNO 261139Z 2612/2712 VRB05KT P6SM BKN200=



000
FTUS45 KBOI 261139
TAFTWF
TAF
KTWF 261139Z 2612/2712 21011KT P6SM BKN050
     FM270300 17010KT P6SM SCT200=



000
FTUS45 KBOI 261139
TAFBOI
TAF
KBOI 261139Z 2612/2712 VRB03KT P6SM BKN200
     FM261800 13007KT P6SM BKN200=



000
FTUS45 KBOI 261139
TAFBNO
TAF
KBNO 261139Z 2612/2712 VRB05KT P6SM BKN200=



000
FTUS45 KBOI 261139
TAFJER
TAF
KJER 261139Z 2612/2712 23011KT P6SM SCT050 BKN100
     FM270100 05010KT P6SM SCT200=



000
FTUS45 KBOI 261139
TAFBKE
TAF
KBKE 261139Z 2612/2712 10005KT P6SM BKN200=



000
FTUS45 KBOI 261139
TAFTWF
TAF
KTWF 261139Z 2612/2712 21011KT P6SM BKN050
     FM270300 17010KT P6SM SCT200=



000
FTUS45 KBOI 261139
TAFMYL
TAF
KMYL 261139Z 2612/2712 15005KT P6SM BKN030 BKN200
     FM261900 15005KT P6SM BKN050 BKN200=



000
FTUS45 KBOI 261110 AAA
TAFMYL
TAF AMD
KMYL 261110Z 2611/2706 VRB03KT P6SM VCSH BKN030 OVC050
     FM261900 VRB03KT 4SM BR SCT001 OVC015=



000
FTUS45 KBOI 261110 AAA
TAFMYL
TAF AMD
KMYL 261110Z 2611/2706 VRB03KT P6SM VCSH BKN030 OVC050
     FM261900 VRB03KT 4SM BR SCT001 OVC015=



000
FTUS45 KBOI 260910 AAA
TAFBKE
TAF AMD
KBKE 260910Z 2609/2706 VRB05KT P6SM SCT060
     FM261900 10008KT P6SM BKN200=



000
FTUS45 KBOI 260909 AAA
TAFTWF
TAF AMD
KTWF 260909Z 2609/2706 20010KT P6SM BKN050
     FM261600 23010KT P6SM SCT200=



000
FTUS45 KBOI 260909 AAA
TAFTWF
TAF AMD
KTWF 260909Z 2609/2706 20010KT P6SM BKN050
     FM261600 23010KT P6SM SCT200=



    US Dept of Commerce
    National Oceanic and Atmospheric Administration
    National Weather Service
    1325 East West Highway
    Silver Spring, MD 20910
    Page Author: NWS Internet Services Team
Disclaimer
Information Quality
Credits
Glossary
Privacy Policy
Freedom of Information Act (FOIA)
About Us
Career Opportunities